Time;durP1;ratioP1;P1;durP2;ratioP2;P2;SDS_P1;SDS_P2;PMS_P1;PMS_P2;Temp;Humidity;BMP_temperature;BMP_pressure;BME280_temperature;BME280_humidity;BME280_pressure;Samples;Min_cycle;Max_cycle;Signal;HPM_P1;HPM_P2
2022/08/20 00:01:19;;;;;;;9.38;7.53;;;17.40;99.90;;;17.94;100.00;99384.22;5045785;27;130340;-74
2022/08/20 00:03:47;;;;;;;12.35;6.90;;;17.40;99.90;;;17.89;100.00;99381.78;5046712;27;129408;-73
2022/08/20 00:06:20;;;;;;;11.77;7.57;;;17.40;99.90;;;17.83;100.00;99383.22;5046722;27;120455;-72
2022/08/20 00:08:50;;;;;;;11.07;7.65;;;17.30;99.90;;;17.75;100.00;99387.00;5028093;28;119099;-73
2022/08/20 00:11:23;;;;;;;14.32;7.55;;;17.30;99.90;;;17.74;100.00;99385.38;5031487;27;131530;-73
2022/08/20 00:13:59;;;;;;;11.32;7.28;;;17.20;99.90;;;17.59;100.00;99384.31;5047975;27;128298;-73
2022/08/20 00:16:32;;;;;;;14.73;8.05;;;17.10;99.90;;;17.45;100.00;99395.78;5046685;27;119727;-74
2022/08/20 00:19:02;;;;;;;11.82;7.90;;;17.10;99.90;;;17.37;100.00;99389.38;5027992;27;120229;-74
2022/08/20 00:21:31;;;;;;;17.63;8.57;;;17.00;99.90;;;17.39;100.00;99391.72;5047807;27;129119;-71
2022/08/20 00:24:01;;;;;;;9.48;7.72;;;17.00;99.90;;;17.35;100.00;99396.38;5045967;27;130158;-71
2022/08/20 00:26:29;;;;;;;14.35;8.02;;;16.90;99.90;;;17.36;100.00;99389.72;5046200;27;120534;-72
2022/08/20 00:28:57;;;;;;;12.48;7.90;;;16.90;99.90;;;17.40;100.00;99394.09;5028485;27;119507;-71
2022/08/20 00:31:26;;;;;;;15.63;8.20;;;16.90;99.90;;;17.40;100.00;99387.84;5044884;27;130249;-73
2022/08/20 00:33:55;;;;;;;11.63;8.00;;;17.00;99.90;;;17.45;100.00;99393.03;5045963;27;129697;-73
2022/08/20 00:36:24;;;;;;;11.65;8.32;;;17.00;99.90;;;17.49;100.00;99385.69;5044942;27;122329;-72
2022/08/20 00:38:52;;;;;;;13.52;8.00;;;17.10;99.90;;;17.53;100.00;99392.03;5046480;27;121827;-75
2022/08/20 00:41:26;;;;;;;11.85;8.65;;;17.20;99.90;;;17.58;100.00;99380.78;5030350;27;129413;-74
2022/08/20 00:44:09;;;;;;;12.48;8.18;;;17.30;99.90;;;17.68;100.00;99386.84;5045716;27;130251;-74
2022/08/20 00:46:40;;;;;;;10.38;7.50;;;17.30;99.90;;;17.71;100.00;99386.13;5046005;27;119815;-74
2022/08/20 00:49:16;;;;;;;11.15;7.72;;;17.40;99.90;;;17.69;100.00;99382.94;5046715;27;119592;-75
2022/08/20 00:51:49;;;;;;;11.00;7.70;;;17.40;99.90;;;17.76;100.00;99388.56;5022552;27;129046;-73
2022/08/20 00:54:26;;;;;;;14.77;7.20;;;17.40;99.90;;;17.77;100.00;99379.19;5027560;27;129949;-74
2022/08/20 00:57:02;;;;;;;10.55;7.20;;;17.50;99.90;;;17.80;100.00;99383.94;5031047;27;118825;-73
2022/08/20 00:59:36;;;;;;;11.48;7.15;;;17.40;99.90;;;17.76;100.00;99377.56;5051078;27;119593;-74
2022/08/20 01:02:07;;;;;;;12.00;7.72;;;17.40;99.90;;;17.76;100.00;99391.28;5045757;27;130105;-74
2022/08/20 01:04:37;;;;;;;12.75;7.75;;;17.50;99.90;;;17.77;100.00;99392.91;5045284;27;130466;-73
2022/08/20 01:07:07;;;;;;;9.75;7.82;;;17.40;99.90;;;17.74;100.00;99386.16;5042078;27;119567;-75
2022/08/20 01:09:37;;;;;;;11.60;7.70;;;17.40;99.90;;;17.72;100.00;99371.25;5024260;27;119393;-73
2022/08/20 01:12:09;;;;;;;11.25;7.47;;;17.40;99.90;;;17.74;100.00;99369.69;5041906;27;130978;-72
2022/08/20 01:14:43;;;;;;;10.77;7.13;;;17.40;99.90;;;17.74;100.00;99382.63;5041772;27;129527;-73
2022/08/20 01:17:16;;;;;;;11.57;7.57;;;17.30;99.90;;;17.69;100.00;99378.25;5042281;27;119645;-73
2022/08/20 01:19:50;;;;;;;11.35;7.15;;;17.30;99.90;;;17.63;100.00;99385.19;5042484;27;119462;-75
2022/08/20 01:25:24;;;;;;;12.88;7.80;;;17.20;99.90;;;17.59;100.00;99387.84;5041710;27;129661;-74
2022/08/20 01:27:56;;;;;;;10.52;7.78;;;17.30;99.90;;;17.58;100.00;99383.50;5041037;27;122534;-73
2022/08/20 01:30:27;;;;;;;11.27;7.82;;;17.20;99.90;;;17.60;100.00;99378.44;5042117;27;121858;-73
2022/08/20 01:32:57;;;;;;;14.88;8.20;;;17.20;99.90;;;17.64;100.00;99374.97;5041789;27;130030;-73
2022/08/20 01:35:26;;;;;;;13.10;8.18;;;17.10;99.90;;;17.63;100.00;99373.41;5041849;27;129543;-73
2022/08/20 01:37:55;;;;;;;11.93;8.27;;;17.10;99.90;;;17.58;100.00;99383.50;5042108;27;119652;-73
2022/08/20 01:40:45;;;;;;;13.07;8.50;;;17.10;99.90;;;17.58;100.00;99378.03;5041966;27;119264;-73
2022/08/20 01:43:15;;;;;;;11.77;7.60;;;17.10;99.90;;;17.55;100.00;99376.00;5026493;27;130170;-72
2022/08/20 01:45:44;;;;;;;13.23;8.32;;;17.10;99.90;;;17.54;100.00;99379.91;5041828;27;130198;-73
2022/08/20 01:48:14;;;;;;;11.07;7.55;;;17.10;99.90;;;17.55;100.00;99373.25;5041719;27;119694;-73
2022/08/20 01:50:54;;;;;;;15.60;8.60;;;17.00;99.90;;;17.57;100.00;99387.41;5026449;27;119503;-73
2022/08/20 01:53:32;;;;;;;12.05;8.15;;;17.00;99.90;;;17.60;100.00;99386.69;5040249;27;130223;-73
2022/08/20 01:56:01;;;;;;;13.02;8.77;;;17.10;99.90;;;17.58;100.00;99383.50;5041445;27;129123;-73
2022/08/20 01:58:33;;;;;;;12.88;8.35;;;17.10;99.90;;;17.61;100.00;99377.31;5009897;27;118737;-74
2022/08/20 02:01:02;;;;;;;12.48;8.55;;;17.20;99.90;;;17.70;100.00;99379.03;5026684;27;119318;-74
2022/08/20 02:03:30;;;;;;;10.63;8.15;;;17.20;99.90;;;17.72;100.00;99371.25;5041697;27;130851;-73
2022/08/20 02:06:00;;;;;;;11.77;8.05;;;17.30;99.90;;;17.80;100.00;99370.22;5026537;27;130207;-73
2022/08/20 02:08:32;;;;;;;14.52;8.65;;;17.30;99.90;;;17.82;100.00;99375.34;5041611;27;119443;-73
2022/08/20 02:11:01;;;;;;;12.68;7.65;;;17.30;99.90;;;17.81;100.00;99362.75;5041619;27;119577;-74
2022/08/20 02:13:31;;;;;;;12.18;8.05;;;17.30;99.90;;;17.84;100.00;99360.09;5040845;27;130560;-74
2022/08/20 02:16:00;;;;;;;11.73;8.30;;;17.30;99.90;;;17.91;100.00;99368.50;5022930;27;130345;-73
2022/08/20 02:18:28;;;;;;;11.10;8.25;;;17.30;99.90;;;17.91;100.00;99363.00;5038774;27;122143;-74
2022/08/20 02:20:57;;;;;;;13.30;8.60;;;17.40;99.90;;;17.93;100.00;99366.16;5041173;27;122396;-74
2022/08/20 02:23:26;;;;;;;14.60;7.55;;;17.40;99.90;;;17.91;100.00;99357.50;5040756;27;129860;-74
2022/08/20 02:25:55;;;;;;;11.57;7.65;;;17.40;99.90;;;17.86;100.00;99360.53;5041164;27;129910;-73
2022/08/20 02:28:23;;;;;;;11.18;8.77;;;17.40;99.90;;;17.83;100.00;99355.75;5041152;27;119449;-74
2022/08/20 02:30:55;;;;;;;13.27;8.00;;;17.40;99.90;;;17.88;100.00;99358.22;5041436;27;119534;-74
2022/08/20 02:33:24;;;;;;;11.88;8.40;;;17.50;99.90;;;17.94;100.00;99356.78;5040699;27;130568;-73
2022/08/20 02:35:54;;;;;;;12.15;8.13;;;17.50;99.90;;;17.99;100.00;99354.91;5022856;27;129288;-73
2022/08/20 02:38:22;;;;;;;11.27;7.85;;;17.50;99.90;;;17.94;100.00;99362.28;5041174;27;119899;-73
2022/08/20 02:40:51;;;;;;;13.02;7.60;;;17.50;99.90;;;17.95;100.00;99358.38;5040724;27;120006;-73
2022/08/20 02:43:20;;;;;;;12.45;8.05;;;17.50;99.90;;;17.94;100.00;99350.50;5021189;27;129909;-73
2022/08/20 02:45:50;;;;;;;10.15;7.63;;;17.50;99.90;;;18.01;100.00;99355.31;5041010;27;129362;-73
2022/08/20 02:48:22;;;;;;;10.07;8.27;;;17.50;99.90;;;18.02;100.00;99356.91;5040627;27;121294;-74
2022/08/20 02:50:56;;;;;;;11.88;7.85;;;17.50;99.90;;;18.01;100.00;99355.31;5043754;27;120822;-74
2022/08/20 02:53:29;;;;;;;12.45;7.90;;;17.60;99.90;;;18.01;100.00;99355.31;5022291;27;129948;-74
2022/08/20 02:55:57;;;;;;;10.80;7.60;;;17.70;99.90;;;18.03;100.00;99361.22;5040496;27;129451;-73
2022/08/20 02:58:26;;;;;;;12.90;7.93;;;17.60;99.90;;;18.03;100.00;99369.47;5040846;27;119699;-72
2022/08/20 03:00:55;;;;;;;11.15;8.05;;;17.60;99.90;;;18.00;100.00;99370.19;5040713;27;119491;-75
2022/08/20 03:03:25;;;;;;;11.52;7.80;;;17.50;99.90;;;18.02;100.00;99362.41;5040369;27;130173;-73
2022/08/20 03:05:58;;;;;;;10.70;7.93;;;17.50;99.90;;;18.03;100.00;99369.47;5040478;27;129622;-73
2022/08/20 03:08:28;;;;;;;12.70;7.93;;;17.50;99.90;;;18.03;100.00;99363.97;5024559;27;121096;-72
2022/08/20 03:10:58;;;;;;;10.23;7.53;;;17.60;99.90;;;18.11;100.00;99365.72;5040637;27;121982;-72
2022/08/20 03:13:26;;;;;;;13.85;8.35;;;17.60;99.90;;;18.07;100.00;99348.38;5040048;27;129935;-73
2022/08/20 03:16:00;;;;;;;12.02;7.80;;;17.60;99.90;;;18.13;100.00;99352.41;5040263;27;129500;-73
2022/08/20 03:18:38;;;;;;;10.20;7.38;;;17.70;99.90;;;18.17;100.00;99363.44;5040436;27;119551;-73
2022/08/20 03:21:09;;;;;;;11.30;7.65;;;17.70;99.90;;;18.07;100.00;99359.34;5040434;27;119718;-74
2022/08/20 03:23:39;;;;;;;11.25;7.43;;;17.60;99.90;;;18.04;100.00;99366.34;5024932;27;128658;-74
2022/08/20 03:26:11;;;;;;;15.27;8.73;;;17.60;99.90;;;18.09;100.00;99362.50;5040756;27;129326;-73
2022/08/20 03:28:40;;;;;;;12.65;7.97;;;17.60;99.90;;;18.14;100.00;99364.97;5039047;27;119745;-73
2022/08/20 03:31:10;;;;;;;14.13;8.00;;;17.70;99.90;;;18.15;100.00;99363.81;5039857;27;119513;-72
2022/08/20 03:33:40;;;;;;;10.55;8.02;;;17.70;99.90;;;18.09;100.00;99362.50;5023522;27;129613;-71
2022/08/20 03:36:09;;;;;;;15.13;7.80;;;17.70;99.90;;;18.08;100.00;99363.69;5040046;27;129747;-73
2022/08/20 03:38:38;;;;;;;12.68;8.35;;;17.70;99.90;;;18.04;100.00;99354.59;5025017;27;118301;-73
2022/08/20 03:41:06;;;;;;;11.02;7.72;;;17.70;99.90;;;18.01;100.00;99355.31;5024745;27;118826;-72
2022/08/20 03:43:36;;;;;;;12.13;8.63;;;17.70;99.90;;;17.95;100.00;99363.88;5039653;27;130035;-74
2022/08/20 03:46:05;;;;;;;10.95;8.07;;;17.70;99.90;;;17.99;100.00;99365.88;5041425;27;129147;-72
2022/08/20 03:48:33;;;;;;;12.38;7.55;;;17.70;99.90;;;18.13;100.00;99364.16;5007980;27;118613;-74
2022/08/20 03:51:04;;;;;;;10.70;7.65;;;17.80;99.90;;;18.26;100.00;99362.06;5040548;27;119103;-74
2022/08/20 03:53:33;;;;;;;9.80;7.63;;;17.80;99.90;;;18.27;100.00;99363.63;5039507;27;130497;-73
2022/08/20 03:56:06;;;;;;;11.98;7.72;;;17.80;99.90;;;18.35;100.00;99364.53;5039396;27;129480;-74
2022/08/20 03:58:35;;;;;;;12.30;7.93;;;17.90;99.90;;;18.38;100.00;99368.50;5038652;27;122198;-73
2022/08/20 04:01:07;;;;;;;11.13;7.75;;;17.90;99.90;;;18.49;100.00;99369.47;5039422;27;121826;-74
2022/08/20 04:03:36;;;;;;;10.98;7.50;;;18.00;99.90;;;18.53;100.00;99375.84;5039538;27;130010;-74
2022/08/20 04:06:07;;;;;;;13.55;7.65;;;18.00;99.90;;;18.64;100.00;99376.78;5039368;27;129440;-73
2022/08/20 04:08:36;;;;;;;9.52;7.70;;;18.10;99.90;;;18.67;100.00;99381.53;5039378;27;119654;-73
2022/08/20 04:11:04;;;;;;;12.23;7.45;;;18.10;99.90;;;18.75;100.00;99382.44;5021124;27;120100;-73
2022/08/20 04:13:32;;;;;;;12.85;8.32;;;18.10;99.90;;;18.85;100.00;99381.84;5039290;27;130880;-73
2022/08/20 04:16:07;;;;;;;14.45;7.88;;;18.20;99.90;;;18.93;100.00;99382.75;5039864;27;129960;-73
2022/08/20 04:18:36;;;;;;;12.00;7.95;;;18.20;99.90;;;19.06;99.42;99386.06;5040134;27;119930;-73
2022/08/20 04:21:06;;;;;;;10.98;7.47;;;18.30;99.90;;;19.14;99.04;99386.97;5039821;27;119726;-74
2022/08/20 04:23:35;;;;;;;10.65;7.95;;;18.40;99.90;;;19.17;98.56;99378.75;5030073;27;130554;-71
2022/08/20 04:26:04;;;;;;;13.38;8.35;;;18.40;99.90;;;19.01;99.56;99378.94;5039223;27;129828;-73
2022/08/20 04:28:33;;;;;;;12.07;7.57;;;18.30;99.90;;;18.95;100.00;99374.94;5039731;27;119788;-73
2022/08/20 04:31:02;;;;;;;12.65;7.78;;;18.20;99.90;;;18.94;100.00;99386.28;5039697;27;119426;-72
2022/08/20 04:33:31;;;;;;;10.88;7.63;;;18.20;99.90;;;18.91;100.00;99378.78;5039157;27;129548;-73
2022/08/20 04:36:01;;;;;;;9.13;7.00;;;18.20;99.90;;;19.02;100.00;99386.00;5039743;27;129911;-73
2022/08/20 04:38:31;;;;;;;13.93;8.10;;;18.30;99.90;;;19.00;100.00;99377.34;5025678;27;118718;-73
2022/08/20 04:41:00;;;;;;;11.93;7.85;;;18.30;99.90;;;18.90;100.00;99378.00;5041793;27;119976;-73
2022/08/20 04:43:32;;;;;;;11.18;7.05;;;18.20;99.90;;;18.98;100.00;99382.44;5042889;27;131363;-75
2022/08/20 04:46:05;;;;;;;12.70;7.15;;;18.30;99.90;;;19.09;100.00;99385.34;5027610;27;129191;-74
2022/08/20 04:48:34;;;;;;;9.52;6.72;;;18.40;99.90;;;19.17;100.00;99380.72;5022801;27;121891;-75
2022/08/20 04:51:03;;;;;;;8.32;6.88;;;18.50;99.90;;;19.34;98.75;99373.88;5042804;27;122613;-72
2022/08/20 04:53:34;;;;;;;9.75;7.35;;;18.60;99.90;;;19.27;99.03;99374.56;5042510;27;129943;-74
2022/08/20 04:56:04;;;;;;;9.85;7.60;;;18.50;99.90;;;19.31;99.03;99369.13;5042616;27;129555;-72
2022/08/20 04:58:37;;;;;;;11.60;7.22;;;18.50;99.90;;;19.20;99.48;99368.97;5042774;27;119940;-70
2022/08/20 05:01:09;;;;;;;12.13;7.40;;;18.40;99.90;;;18.90;100.00;99371.69;5042785;27;119566;-74
2022/08/20 05:03:40;;;;;;;11.10;8.00;;;18.30;99.90;;;18.90;100.00;99367.00;5042329;27;129739;-71
2022/08/20 05:06:11;;;;;;;13.23;7.32;;;18.30;99.90;;;18.94;100.00;99373.31;5044432;27;129210;-72
2022/08/20 05:08:41;;;;;;;10.40;7.00;;;18.30;99.90;;;18.84;100.00;99379.44;5026868;27;118965;-70
2022/08/20 05:11:13;;;;;;;10.52;7.68;;;18.20;99.90;;;18.94;100.00;99373.31;5027591;27;118261;-70
2022/08/20 05:13:42;;;;;;;9.48;7.05;;;18.30;99.90;;;18.91;100.00;99382.31;5036538;27;130084;-75
2022/08/20 05:16:11;;;;;;;10.15;7.90;;;18.20;99.90;;;18.92;100.00;99386.66;5025790;27;129028;-71
2022/08/20 05:18:42;;;;;;;13.02;7.70;;;18.30;99.90;;;18.95;100.00;99385.94;5041205;27;119598;-70
2022/08/20 05:21:10;;;;;;;10.38;7.53;;;18.30;99.90;;;19.07;100.00;99378.59;5042166;27;119461;-70
2022/08/20 05:23:41;;;;;;;10.05;7.38;;;18.40;99.90;;;19.18;100.00;99379.53;5040856;27;129769;-73
2022/08/20 05:26:11;;;;;;;9.32;7.22;;;18.40;99.90;;;19.37;100.00;99384.13;5025597;27;129240;-71
2022/08/20 05:28:40;;;;;;;11.23;6.80;;;18.60;99.90;;;19.45;100.00;99380.31;5027351;27;118781;-70
2022/08/20 05:31:09;;;;;;;12.57;7.38;;;18.70;99.90;;;19.55;100.00;99379.63;5042967;27;119425;-72
2022/08/20 05:33:39;;;;;;;9.38;7.47;;;18.80;99.90;;;19.47;100.00;99379.94;5026120;27;129668;-72
2022/08/20 05:36:09;;;;;;;11.20;6.95;;;18.70;99.90;;;19.39;100.00;99382.56;5026830;27;129224;-72
2022/08/20 05:38:38;;;;;;;10.75;7.13;;;18.60;99.90;;;19.29;100.00;99375.00;5039755;27;122530;-72
2022/08/20 05:41:08;;;;;;;11.00;7.63;;;18.50;99.90;;;19.01;100.00;99386.38;5041837;27;123091;-72
2022/08/20 05:43:36;;;;;;;13.38;8.10;;;18.30;99.90;;;18.90;100.00;99382.69;5040807;27;129888;-75
2022/08/20 05:46:05;;;;;;;11.75;7.53;;;18.20;99.90;;;18.88;100.00;99385.03;5041639;27;130127;-76
2022/08/20 05:48:34;;;;;;;13.43;9.20;;;18.20;99.90;;;18.86;100.00;99388.13;5041168;27;119522;-72
2022/08/20 05:51:03;;;;;;;12.85;8.52;;;18.20;99.90;;;18.83;100.00;99377.84;5041364;27;119664;-75
2022/08/20 05:53:33;;;;;;;13.27;8.00;;;18.20;99.90;;;18.92;100.00;99369.38;5026042;27;129171;-75
2022/08/20 05:56:01;;;;;;;15.00;8.57;;;18.30;99.90;;;18.83;100.00;99361.34;5041599;27;130721;-72
2022/08/20 05:58:32;;;;;;;11.35;8.25;;;18.20;99.90;;;19.04;100.00;99367.19;5041663;27;120302;-75
2022/08/20 06:01:01;;;;;;;13.75;9.13;;;18.30;99.90;;;19.08;100.00;99366.47;5040401;27;120041;-75
2022/08/20 06:06:16;;;;;;;15.35;8.85;;;18.40;99.90;;;19.18;100.00;99371.28;5041069;27;129693;-77
2022/08/20 06:08:44;;;;;;;17.10;8.95;;;18.40;99.90;;;19.14;100.00;99373.22;5040559;27;119433;-72
2022/08/20 06:11:13;;;;;;;15.95;9.50;;;18.40;99.90;;;19.03;100.00;99371.09;5041307;27;119463;-74
2022/08/20 06:13:42;;;;;;;13.25;9.30;;;18.40;99.90;;;18.90;100.00;99367.00;5038938;27;130601;-73
2022/08/20 06:16:11;;;;;;;13.85;8.90;;;18.20;99.90;;;18.98;100.00;99371.44;5041070;27;129501;-77
2022/08/20 06:18:40;;;;;;;11.55;8.13;;;18.30;99.90;;;18.89;100.00;99367.38;5026063;27;118963;-74
2022/08/20 06:21:08;;;;;;;16.38;10.20;;;18.30;99.90;;;18.87;100.00;99367.75;5041676;27;119408;-77
2022/08/20 06:23:37;;;;;;;14.23;9.32;;;18.20;99.90;;;18.99;100.00;99367.50;5024383;27;129199;-76
2022/08/20 06:26:08;;;;;;;17.48;9.20;;;18.30;99.90;;;18.88;100.00;99366.56;5040715;27;129020;-76
2022/08/20 06:28:36;;;;;;;19.08;9.27;;;18.20;99.90;;;18.89;100.00;99367.38;5039887;27;122068;-73
2022/08/20 06:31:06;;;;;;;12.13;8.63;;;18.30;99.90;;;18.92;100.00;99364.66;5022358;27;121410;-70
2022/08/20 06:33:35;;;;;;;14.48;9.13;;;18.30;99.90;;;18.90;100.00;99361.50;5040863;27;130189;-72
2022/08/20 06:36:04;;;;;;;14.20;8.55;;;18.20;99.90;;;18.92;100.00;99364.66;5040853;27;129505;-75
2022/08/20 06:38:32;;;;;;;12.35;7.97;;;18.20;99.90;;;18.78;100.00;99375.44;5040915;27;120489;-74
2022/08/20 06:41:01;;;;;;;13.48;8.02;;;18.20;99.90;;;18.83;100.00;99366.84;5041163;27;119497;-76
2022/08/20 06:43:30;;;;;;;14.85;7.43;;;18.20;99.90;;;18.81;100.00;99369.19;5042447;27;129963;-71
2022/08/20 06:45:59;;;;;;;14.80;7.60;;;18.10;99.90;;;18.56;100.00;99364.09;5041017;27;130772;-71
2022/08/20 06:48:29;;;;;;;12.50;7.50;;;18.00;99.90;;;18.55;100.00;99370.75;5041185;27;119646;-76
2022/08/20 06:50:59;;;;;;;10.57;7.30;;;17.90;99.90;;;18.69;100.00;99365.47;5041289;27;120837;-77
2022/08/20 06:53:27;;;;;;;15.00;6.72;;;18.10;99.90;;;18.68;100.00;99355.66;5007950;27;130002;-76
2022/08/20 06:55:58;;;;;;;10.73;7.15;;;18.00;99.90;;;18.85;100.00;99357.13;5040893;27;129628;-75
2022/08/20 06:58:31;;;;;;;8.60;5.93;;;18.20;99.90;;;18.96;100.00;99360.00;5026070;27;119434;-76
2022/08/20 07:01:00;;;;;;;9.02;5.65;;;18.20;99.90;;;19.12;100.00;99368.09;5040860;27;119666;-74
2022/08/20 07:03:30;;;;;;;7.97;5.45;;;18.30;99.90;;;19.16;100.00;99362.63;5039707;27;130053;-75
2022/08/20 07:05:59;;;;;;;9.77;5.10;;;18.40;99.90;;;19.36;100.00;99361.31;5040749;27;129823;-76
2022/08/20 07:08:28;;;;;;;8.15;5.05;;;18.50;99.90;;;19.44;100.00;99364.16;5040892;27;119798;-75
2022/08/20 07:10:56;;;;;;;6.93;4.40;;;18.50;99.90;;;19.78;100.00;99353.19;5026110;27;118269;-76
2022/08/20 07:13:25;;;;;;;8.18;4.30;;;18.90;99.90;;;20.00;100.00;99349.47;5039309;27;130092;-77
2022/08/20 07:15:54;;;;;;;7.65;4.32;;;19.00;99.90;;;19.96;100.00;99348.66;5025474;27;130210;-76
2022/08/20 07:18:23;;;;;;;8.25;4.93;;;18.90;99.90;;;19.86;100.00;99343.81;5016180;27;120913;-76
2022/08/20 07:20:55;;;;;;;6.90;3.70;;;18.80;99.90;;;19.80;100.00;99345.31;5025670;27;121528;-78
2022/08/20 07:23:24;;;;;;;8.85;4.50;;;18.70;99.90;;;19.88;100.00;99352.47;5041972;27;130032;-73
2022/08/20 07:25:54;;;;;;;6.57;4.18;;;18.80;99.90;;;19.97;100.00;99347.47;5040634;27;129501;-76
2022/08/20 07:28:27;;;;;;;16.48;6.20;;;18.80;99.90;;;20.23;100.00;99346.53;5022144;27;120163;-78
2022/08/20 07:33:43;;;;;;;7.20;4.75;;;19.20;99.90;;;20.23;100.00;99351.25;5040063;27;130051;-74
2022/08/20 07:36:13;;;;;;;60.22;14.48;;;19.20;99.90;;;20.24;100.00;99355.56;5040054;27;130590;-74
2022/08/20 07:38:44;;;;;;;8.25;4.90;;;19.40;99.90;;;20.35;100.00;99353.72;5039780;27;119648;-76
2022/08/20 07:41:14;;;;;;;8.85;5.47;;;19.20;99.90;;;20.57;100.00;99348.34;5025175;27;118565;-74
2022/08/20 07:43:45;;;;;;;7.93;4.60;;;19.40;99.90;;;21.07;96.41;99347.94;5038421;27;130706;-75
2022/08/20 07:46:14;;;;;;;12.50;5.70;;;19.80;99.90;;;21.59;91.76;99345.00;5024906;27;129900;-74
2022/08/20 07:48:48;;;;;;;15.25;5.22;;;20.20;99.90;;;21.99;89.66;99346.69;5040008;27;120329;-75
2022/08/20 07:51:21;;;;;;;6.18;4.50;;;20.40;99.90;;;21.98;87.78;99347.06;5039855;27;119589;-75
2022/08/20 07:53:51;;;;;;;12.18;5.57;;;20.50;99.90;;;22.08;86.91;99338.78;5039566;27;129804;-74
2022/08/20 07:56:23;;;;;;;10.73;5.32;;;20.60;99.90;;;21.88;88.27;99335.59;5039264;27;129533;-72
2022/08/20 07:58:55;;;;;;;7.30;4.60;;;20.40;99.90;;;21.90;88.29;99341.53;5021539;27;120098;-75
2022/08/20 08:01:28;;;;;;;7.93;4.82;;;20.50;99.90;;;22.11;86.64;99326.19;5025627;27;119614;-76
2022/08/20 08:03:57;;;;;;;7.15;4.72;;;20.50;99.90;;;22.30;85.92;99335.22;5039367;27;131105;-77
2022/08/20 08:06:29;;;;;;;9.68;5.20;;;20.80;94.30;;;22.16;85.31;99328.53;5039536;27;129705;-75
2022/08/20 08:09:01;;;;;;;10.55;5.45;;;20.70;94.30;;;21.99;86.85;99329.31;5038552;27;122232;-75
2022/08/20 08:11:32;;;;;;;9.75;5.35;;;20.50;98.10;;;22.32;85.10;99319.09;5039733;27;122150;-75
2022/08/20 08:14:01;;;;;;;9.18;5.38;;;20.70;94.30;;;22.15;85.43;99321.41;5039682;27;129872;-75
2022/08/20 08:16:31;;;;;;;6.20;4.20;;;20.60;94.30;;;22.08;85.22;99322.22;5045633;27;128907;-76
2022/08/20 08:19:00;;;;;;;7.68;4.43;;;20.60;94.30;;;22.35;83.92;99321.06;5030366;27;118901;-75
2022/08/20 08:21:31;;;;;;;7.50;4.70;;;20.80;82.30;;;22.80;81.87;99321.41;5043184;27;120203;-75
2022/08/20 08:24:00;;;;;;;10.00;4.60;;;21.30;58.60;;;23.22;78.30;99325.25;5041744;27;130374;-72
2022/08/20 08:26:28;;;;;;;7.65;4.30;;;21.50;29.60;;;23.62;76.21;99328.63;5043365;27;130006;-75
2022/08/20 08:28:57;;;;;;;15.85;5.55;;;21.90;19.10;;;23.59;76.16;99331.41;5042973;27;119623;-75
2022/08/20 08:31:25;;;;;;;6.03;3.47;;;21.90;15.10;;;23.31;74.54;99338.63;5042804;27;120024;-75
2022/08/20 08:33:54;;;;;;;7.30;3.88;;;21.60;1.00;;;23.03;76.06;99339.50;5041789;27;129622;-75
2022/08/20 08:36:23;;;;;;;5.55;3.95;;;21.40;9.70;;;22.53;77.85;99335.69;5033839;27;128543;-75
2022/08/20 08:38:54;;;;;;;7.53;3.85;;;21.10;19.20;;;22.43;79.83;99325.41;5042560;27;120368;-72
2022/08/20 08:41:32;;;;;;;7.20;4.45;;;21.00;33.60;;;22.18;81.63;99326.16;5042560;27;119917;-74
2022/08/20 08:44:07;;;;;;;9.13;4.43;;;20.80;46.60;;;22.13;82.35;99323.00;5042066;27;129917;-74
2022/08/20 08:46:41;;;;;;;10.25;5.15;;;20.80;48.70;;;21.70;85.24;99324.50;5041492;27;130417;-75
2022/08/20 08:49:14;;;;;;;6.90;4.30;;;20.50;76.40;;;21.38;88.72;99321.66;5043045;27;119914;-75
2022/08/20 08:51:48;;;;;;;8.25;4.68;;;20.40;94.20;;;20.94;94.46;99328.13;5042935;27;119892;-74
2022/08/20 08:54:21;;;;;;;8.15;5.07;;;20.00;99.90;;;20.79;99.66;99333.56;5042102;27;129797;-73
2022/08/20 08:56:51;;;;;;;7.10;5.53;;;19.80;99.90;;;20.70;100.00;99335.88;5027125;27;129006;-75
2022/08/20 08:59:21;;;;;;;8.55;5.32;;;19.80;99.90;;;20.62;100.00;99336.97;5026487;27;121505;-74
2022/08/20 09:01:53;;;;;;;8.43;5.20;;;19.70;99.90;;;20.48;100.00;99335.69;5042357;27;121759;-75
2022/08/20 09:04:24;;;;;;;6.90;4.40;;;19.60;99.90;;;20.28;100.00;99326.09;5041934;27;129604;-75
2022/08/20 09:06:54;;;;;;;6.10;3.45;;;19.40;99.90;;;20.29;100.00;99335.94;5042174;27;130200;-74
2022/08/20 09:09:30;;;;;;;6.93;3.58;;;19.40;99.90;;;20.19;100.00;99336.63;5029042;27;119691;-74
2022/08/20 09:12:07;;;;;;;5.50;3.65;;;19.30;99.90;;;20.25;100.00;99338.66;5022128;28;119767;-73
2022/08/20 09:14:37;;;;;;;7.38;3.33;;;19.40;99.90;;;20.88;100.00;99324.16;5006550;28;130796;-74
2022/08/20 09:17:07;;;;;;;4.93;2.78;;;19.80;99.90;;;21.40;100.00;99324.03;5021875;28;129936;-75
2022/08/20 09:19:36;;;;;;;6.20;2.85;;;20.10;99.90;;;21.39;99.00;99325.97;5021885;28;119487;-76
2022/08/20 09:22:09;;;;;;;4.43;2.67;;;20.10;99.90;;;21.70;97.60;99329.25;5021909;28;119654;-74
2022/08/20 09:24:42;;;;;;;5.07;2.95;;;20.40;99.90;;;22.14;94.24;99325.34;5002416;28;129762;-75
2022/08/20 09:27:11;;;;;;;5.75;2.75;;;20.60;99.90;;;22.46;91.24;99321.84;5020352;28;129489;-76
2022/08/20 09:29:40;;;;;;;4.35;2.38;;;20.80;99.90;;;22.57;90.14;99330.13;5022636;28;120747;-75
2022/08/20 09:32:13;;;;;;;4.47;2.30;;;21.00;99.90;;;22.21;91.81;99325.38;5026650;27;120093;-75
2022/08/20 09:34:45;;;;;;;5.18;2.78;;;20.60;99.90;;;21.97;92.94;99326.13;5025264;27;128641;-77
2022/08/20 09:37:15;;;;;;;5.07;2.45;;;20.40;99.90;;;21.84;92.78;99329.28;5042558;27;129701;-75
2022/08/20 09:39:45;;;;;;;5.53;3.05;;;20.40;99.90;;;21.58;93.99;99327.66;5041675;27;119923;-73
2022/08/20 09:42:17;;;;;;;9.73;4.30;;;20.20;99.90;;;21.59;94.00;99329.22;5042003;27;119400;-73
2022/08/20 09:44:47;;;;;;;8.65;4.20;;;20.20;99.90;;;21.45;93.10;99329.94;5039475;27;130298;-75
2022/08/20 09:47:16;;;;;;;10.75;4.68;;;20.20;99.90;;;21.42;93.62;99330.72;5043771;27;129670;-75
2022/08/20 09:49:47;;;;;;;9.15;4.72;;;20.10;99.90;;;21.72;91.29;99326.88;5041189;27;122637;-75
2022/08/20 09:52:23;;;;;;;12.63;5.50;;;20.30;99.90;;;21.98;89.84;99327.72;5042284;27;121764;-76
2022/08/20 09:54:59;;;;;;;9.10;4.43;;;20.60;99.90;;;22.22;86.94;99315.91;5026750;27;129696;-75
2022/08/20 09:57:29;;;;;;;10.18;4.45;;;20.80;99.40;;;22.48;86.16;99318.69;5041524;27;129616;-78
2022/08/20 10:00:01;;;;;;;8.20;4.05;;;21.00;99.90;;;22.82;84.10;99319.00;5042107;27;119699;-75
2022/08/20 10:02:41;;;;;;;8.10;4.10;;;21.20;94.50;;;23.27;81.05;99316.53;5041989;27;119233;-76
2022/08/20 10:05:10;;;;;;;9.60;4.15;;;21.60;66.40;;;23.09;80.78;99321.34;5042097;27;129774;-77
2022/08/20 10:07:39;;;;;;;9.02;4.82;;;21.40;58.80;;;22.38;84.44;99321.06;5023526;27;130030;-72
2022/08/20 10:10:13;;;;;;;9.90;5.15;;;20.80;94.30;;;21.87;87.86;99311.91;5041541;27;120440;-75
2022/08/20 10:12:42;;;;;;;10.13;5.40;;;20.40;99.90;;;21.47;90.46;99319.31;5042023;27;119197;-73
2022/08/20 10:15:11;;;;;;;11.68;5.22;;;20.20;99.90;;;21.45;90.75;99318.91;5040156;27;131178;-76
2022/08/20 10:17:41;;;;;;;9.20;5.82;;;20.20;99.90;;;21.29;91.20;99316.47;5041204;27;130412;-75
2022/08/20 10:20:13;;;;;;;12.75;6.80;;;20.10;99.90;;;21.11;92.65;99321.91;5041590;27;119595;-75
2022/08/20 10:22:42;;;;;;;12.68;6.68;;;20.00;99.90;;;21.01;93.81;99323.44;5041456;27;119882;-75
2022/08/20 10:25:13;;;;;;;16.27;7.10;;;20.00;99.90;;;21.07;93.38;99323.88;5041400;27;129902;-73